createdAt,value
2022-09-09T00:00:18.685Z,99589.00
2022-09-09T00:02:55.841Z,99587.34
2022-09-09T00:05:33.392Z,99586.00
2022-09-09T00:08:06.572Z,99589.06
2022-09-09T00:10:40.574Z,99589.50
2022-09-09T00:13:18.263Z,99578.59
2022-09-09T00:15:57.820Z,99588.06
2022-09-09T00:18:31.485Z,99579.84
2022-09-09T00:21:08.522Z,99582.22
2022-09-09T00:23:41.570Z,99584.84
2022-09-09T00:26:17.930Z,99581.09
2022-09-09T00:28:53.589Z,99583.72
2022-09-09T00:31:27.437Z,99575.00
2022-09-09T00:33:57.132Z,99577.63
2022-09-09T00:36:30.102Z,99579.13
2022-09-09T00:39:02.567Z,99581.25
2022-09-09T00:41:46.285Z,99584.78
2022-09-09T00:44:27.346Z,99584.09
2022-09-09T00:47:07.117Z,99584.94
2022-09-09T00:49:49.597Z,99588.34
2022-09-09T00:52:30.141Z,99579.25
2022-09-09T00:55:05.707Z,99584.97
2022-09-09T00:57:35.648Z,99583.78
2022-09-09T01:00:24.252Z,99585.88
2022-09-09T01:03:04.787Z,99587.72
2022-09-09T01:05:42.077Z,99594.75
2022-09-09T01:08:25.815Z,99574.66
2022-09-09T01:10:54.935Z,99586.81
2022-09-09T01:13:31.302Z,99584.94
2022-09-09T01:16:03.555Z,99580.09
2022-09-09T01:18:41.721Z,99575.75
2022-09-09T01:21:19.460Z,99574.03
2022-09-09T01:24:10.056Z,99573.88
2022-09-09T01:27:05.820Z,99571.84
2022-09-09T01:29:37.539Z,99571.47
2022-09-09T01:32:40.370Z,99573.06
2022-09-09T01:35:13.082Z,99573.69
2022-09-09T01:37:41.850Z,99569.00
2022-09-09T01:40:10.496Z,99558.16
2022-09-09T01:42:41.295Z,99560.94
2022-09-09T01:45:11.072Z,99561.22
2022-09-09T01:47:40.043Z,99558.66
2022-09-09T01:50:28.833Z,99556.00
2022-09-09T01:53:00.491Z,99561.84
2022-09-09T01:55:35.575Z,99564.16
2022-09-09T01:58:30.253Z,99565.34
2022-09-09T02:01:08.839Z,99563.25
2022-09-09T02:03:37.657Z,99557.25
2022-09-09T02:06:27.337Z,99570.38
2022-09-09T02:09:04.593Z,99568.44
2022-09-09T02:11:34.769Z,99566.84
2022-09-09T02:14:15.104Z,99566.91
2022-09-09T02:16:52.240Z,99571.84
2022-09-09T02:19:27.972Z,99575.88
2022-09-09T02:22:18.424Z,99581.47
2022-09-09T02:24:47.375Z,99579.13
2022-09-09T02:27:25.384Z,99574.13
2022-09-09T02:29:58.455Z,99588.75
2022-09-09T02:32:40.740Z,99586.97
2022-09-09T02:35:16.629Z,99594.13
2022-09-09T02:37:51.199Z,99586.59
2022-09-09T02:40:19.894Z,99584.94
2022-09-09T02:42:52.564Z,99583.97
2022-09-09T02:45:29.601Z,99582.16
2022-09-09T02:48:10.094Z,99593.47
2022-09-09T02:50:48.058Z,99583.56
2022-09-09T02:53:22.302Z,99578.09
2022-09-09T02:55:57.020Z,99582.72
2022-09-09T02:58:26.442Z,99586.66
2022-09-09T03:01:02.229Z,99582.84
2022-09-09T03:03:34.561Z,99578.47
2022-09-09T03:06:07.378Z,99584.28
2022-09-09T03:08:35.404Z,99583.94
2022-09-09T03:11:03.297Z,99586.34
2022-09-09T03:13:34.822Z,99597.03
2022-09-09T03:16:06.189Z,99590.16
2022-09-09T03:18:39.931Z,99583.38
2022-09-09T03:21:09.704Z,99591.56
2022-09-09T03:23:40.892Z,99594.00
2022-09-09T03:26:09.676Z,99594.84
2022-09-09T03:28:46.456Z,99595.38
2022-09-09T03:31:20.579Z,99589.41
2022-09-09T03:33:48.957Z,99591.06
2022-09-09T03:36:19.529Z,99593.91
2022-09-09T03:38:47.804Z,99597.91
2022-09-09T03:41:15.849Z,99598.72
2022-09-09T03:43:45.781Z,99595.41
2022-09-09T03:46:13.676Z,99599.47
2022-09-09T03:48:43.051Z,99596.63
2022-09-09T03:51:11.651Z,99589.09
2022-09-09T03:53:40.127Z,99578.09
2022-09-09T03:56:09.497Z,99584.28
2022-09-09T03:58:40.367Z,99577.63
2022-09-09T04:01:12.007Z,99583.56
2022-09-09T04:03:40.681Z,99582.41
2022-09-09T04:06:14.523Z,99575.84
2022-09-09T04:08:49.456Z,99572.69
2022-09-09T04:11:18.973Z,99566.47
2022-09-09T04:13:50.187Z,99567.69
2022-09-09T04:16:19.902Z,99573.94
2022-09-09T04:18:48.574Z,99565.13
2022-09-09T04:21:19.250Z,99566.09
2022-09-09T04:23:47.693Z,99562.19
2022-09-09T04:26:16.011Z,99567.34
2022-09-09T04:28:46.588Z,99567.06
2022-09-09T04:31:21.335Z,99567.75
2022-09-09T04:33:51.639Z,99563.72
2022-09-09T04:36:22.156Z,99568.06
2022-09-09T04:38:52.475Z,99572.84
2022-09-09T04:41:22.025Z,99565.75
2022-09-09T04:43:53.470Z,99568.75
2022-09-09T04:46:24.650Z,99566.69
2022-09-09T04:48:55.755Z,99572.25
2022-09-09T04:51:32.213Z,99567.00
2022-09-09T04:54:00.760Z,99571.34
2022-09-09T04:56:29.191Z,99571.50
2022-09-09T04:58:59.501Z,99573.06
2022-09-09T05:01:48.901Z,99588.03
2022-09-09T05:04:17.751Z,99579.63
2022-09-09T05:06:47.532Z,99587.50
2022-09-09T05:09:16.120Z,99594.69
2022-09-09T05:11:45.772Z,99601.50
2022-09-09T05:14:23.866Z,99600.63
2022-09-09T05:16:55.173Z,99608.31
2022-09-09T05:19:24.474Z,99614.69
2022-09-09T05:21:55.483Z,99618.31
2022-09-09T05:24:29.482Z,99617.72
2022-09-09T05:27:02.562Z,99620.25
2022-09-09T05:29:30.695Z,99621.06
2022-09-09T05:31:58.795Z,99627.06
2022-09-09T05:34:26.880Z,99631.63
2022-09-09T05:36:59.520Z,99632.22
2022-09-09T05:39:39.060Z,99630.03
2022-09-09T05:42:07.612Z,99629.00
2022-09-09T05:44:35.658Z,99625.78
2022-09-09T05:47:04.189Z,99628.56
2022-09-09T05:49:32.845Z,99627.75
2022-09-09T05:52:07.956Z,99631.84
2022-09-09T05:54:36.411Z,99631.84
2022-09-09T05:57:04.788Z,99641.56
2022-09-09T05:59:33.398Z,99651.91
2022-09-09T06:02:02.299Z,99644.47
2022-09-09T06:04:35.961Z,99643.47
2022-09-09T06:07:07.217Z,99647.44
2022-09-09T06:09:35.320Z,99634.13
2022-09-09T06:12:04.287Z,99646.28
2022-09-09T06:14:36.134Z,99647.00
2022-09-09T06:17:04.074Z,99657.84
2022-09-09T06:19:32.865Z,99651.34
2022-09-09T06:22:03.338Z,99641.34
2022-09-09T06:24:36.234Z,99648.09
2022-09-09T06:27:06.571Z,99645.09
2022-09-09T06:29:39.507Z,99652.34
2022-09-09T06:32:09.756Z,99652.97
2022-09-09T06:34:37.955Z,99662.16
2022-09-09T06:37:07.855Z,99655.16
2022-09-09T06:39:42.783Z,99658.72
2022-09-09T06:42:10.823Z,99661.38
2022-09-09T06:44:53.506Z,99657.25
2022-09-09T06:47:45.604Z,99657.13
2022-09-09T06:50:13.375Z,99658.00
2022-09-09T06:52:41.306Z,99653.75
2022-09-09T06:55:14.042Z,99647.69
2022-09-09T06:57:42.946Z,99658.88
2022-09-09T07:00:16.534Z,99654.28
2022-09-09T07:02:45.534Z,99643.94
2022-09-09T07:05:14.395Z,99656.25
2022-09-09T07:07:44.362Z,99656.25
2022-09-09T07:10:15.467Z,99658.91
2022-09-09T07:12:44.137Z,99667.31
2022-09-09T07:15:14.770Z,99663.56
2022-09-09T07:17:46.004Z,99660.72
2022-09-09T07:20:15.804Z,99662.53
2022-09-09T07:22:43.893Z,99664.19
2022-09-09T07:25:12.745Z,99658.44
2022-09-09T07:27:42.167Z,99659.41
2022-09-09T07:30:14.765Z,99669.53
2022-09-09T07:32:47.371Z,99665.56
2022-09-09T07:35:17.473Z,99676.94
2022-09-09T07:37:51.022Z,99667.91
2022-09-09T07:40:23.338Z,99680.09
2022-09-09T07:42:54.865Z,99683.09
2022-09-09T07:45:23.331Z,99675.47
2022-09-09T07:47:52.026Z,99686.31
2022-09-09T07:50:20.849Z,99691.31
2022-09-09T07:52:49.703Z,99686.97
2022-09-09T07:55:20.775Z,99684.09
2022-09-09T07:57:49.071Z,99696.44
2022-09-09T08:00:21.179Z,99692.44
2022-09-09T08:02:55.262Z,99688.78
2022-09-09T08:05:24.544Z,99699.28
2022-09-09T08:07:52.736Z,99699.59
2022-09-09T08:10:20.562Z,99703.63
2022-09-09T08:13:07.759Z,99713.66
2022-09-09T08:15:40.713Z,99712.91
2022-09-09T08:18:10.333Z,99708.44
2022-09-09T08:20:40.192Z,99717.13
2022-09-09T08:23:08.724Z,99711.00
2022-09-09T08:25:37.915Z,99711.34
2022-09-09T08:28:08.876Z,99715.66
2022-09-09T08:30:38.474Z,99722.22
2022-09-09T08:33:11.436Z,99725.78
2022-09-09T08:35:39.505Z,99732.28
2022-09-09T08:38:10.984Z,99731.44
2022-09-09T08:40:50.289Z,99727.78
2022-09-09T08:43:23.867Z,99722.81
2022-09-09T08:46:02.320Z,99725.34
2022-09-09T08:48:51.076Z,99724.34
2022-09-09T08:51:20.873Z,99716.47
2022-09-09T08:53:54.469Z,99713.19
2022-09-09T08:56:28.590Z,99710.91
2022-09-09T08:59:04.887Z,99712.72
2022-09-09T09:01:51.343Z,99719.97
2022-09-09T09:04:40.526Z,99715.72
2022-09-09T09:07:22.134Z,99708.53
2022-09-09T09:10:11.817Z,99719.59
2022-09-09T09:12:50.075Z,99713.41
2022-09-09T09:15:23.300Z,99718.94
2022-09-09T09:17:53.402Z,99710.06
2022-09-09T09:20:31.104Z,99707.84
2022-09-09T09:23:05.002Z,99716.94
2022-09-09T09:25:37.555Z,99717.66
2022-09-09T09:28:18.527Z,99724.16
2022-09-09T09:30:54.683Z,99712.22
2022-09-09T09:33:29.668Z,99710.84
2022-09-09T09:36:01.960Z,99704.97
2022-09-09T09:41:31.151Z,99710.19
2022-09-09T09:44:00.427Z,99697.59
2022-09-09T09:46:30.859Z,99695.00
2022-09-09T09:49:11.820Z,99697.66
2022-09-09T09:51:46.857Z,99690.63
2022-09-09T09:54:25.094Z,99693.50
2022-09-09T09:56:57.821Z,99681.22
2022-09-09T09:59:39.768Z,99679.03
2022-09-09T10:02:17.870Z,99676.00
2022-09-09T10:04:48.647Z,99674.84
2022-09-09T10:07:24.890Z,99674.63
2022-09-09T10:09:57.217Z,99664.16
2022-09-09T10:12:37.650Z,99682.78
2022-09-09T10:15:18.203Z,99669.41
2022-09-09T10:18:03.028Z,99668.09
2022-09-09T10:20:41.361Z,99673.69
2022-09-09T10:23:23.084Z,99665.56
2022-09-09T10:26:09.592Z,99681.94
2022-09-09T10:28:56.756Z,99674.72
2022-09-09T10:31:32.633Z,99685.31
2022-09-09T10:34:09.269Z,99702.94
2022-09-09T10:36:43.020Z,99686.03
2022-09-09T10:39:27.772Z,99684.13
2022-09-09T10:42:04.880Z,99686.06
2022-09-09T10:44:43.992Z,99687.81
2022-09-09T10:47:42.022Z,99687.09
2022-09-09T10:51:05.468Z,99682.38
2022-09-09T10:53:39.879Z,99691.03
2022-09-09T10:56:13.193Z,99675.16
2022-09-09T10:58:46.831Z,99678.50
2022-09-09T11:01:21.579Z,99672.25
2022-09-09T11:03:55.812Z,99665.53
2022-09-09T11:06:29.196Z,99657.31
2022-09-09T11:09:02.534Z,99663.44
2022-09-09T11:11:41.693Z,99658.34
2022-09-09T11:14:17.566Z,99653.91
2022-09-09T11:16:52.020Z,99649.00
2022-09-09T11:19:28.741Z,99652.63
2022-09-09T11:21:59.747Z,99656.88
2022-09-09T11:24:33.679Z,99657.22
2022-09-09T11:27:13.274Z,99659.19
2022-09-09T11:30:02.511Z,99648.81
2022-09-09T11:32:55.040Z,99652.00
2022-09-09T11:35:41.481Z,99640.06
2022-09-09T11:38:22.162Z,99647.13
2022-09-09T11:40:58.970Z,99644.88
2022-09-09T11:43:34.541Z,99654.31
2022-09-09T11:46:07.109Z,99649.50
2022-09-09T11:48:38.709Z,99651.91
2022-09-09T11:51:14.562Z,99635.06
2022-09-09T11:53:52.936Z,99662.53
2022-09-09T11:56:29.637Z,99670.06
2022-09-09T11:59:02.978Z,99658.78
2022-09-09T12:01:52.910Z,99665.03
2022-09-09T12:04:38.539Z,99658.41
2022-09-09T12:07:25.716Z,99664.03
2022-09-09T12:09:57.692Z,99657.75
2022-09-09T12:12:31.815Z,99666.56
2022-09-09T12:15:24.510Z,99664.50
2022-09-09T12:17:56.522Z,99660.00
2022-09-09T12:20:35.536Z,99651.56
2022-09-09T12:23:26.585Z,99653.47
2022-09-09T12:26:05.560Z,99643.16
2022-09-09T12:28:48.741Z,99648.09
2022-09-09T12:31:24.358Z,99633.22
2022-09-09T12:33:53.769Z,99629.66
2022-09-09T12:36:25.045Z,99641.47
2022-09-09T12:38:53.574Z,99635.81
2022-09-09T12:41:24.541Z,99635.00
2022-09-09T12:43:52.994Z,99622.31
2022-09-09T12:46:40.078Z,99637.47
2022-09-09T12:49:26.398Z,99630.53
2022-09-09T12:51:55.030Z,99642.38
2022-09-09T12:54:24.579Z,99632.41
2022-09-09T12:56:55.177Z,99646.38
2022-09-09T12:59:27.586Z,99640.28
2022-09-09T13:02:01.216Z,99646.84
2022-09-09T13:04:29.963Z,99650.06
2022-09-09T13:07:12.659Z,99648.16
2022-09-09T13:09:41.804Z,99649.09
2022-09-09T13:12:16.754Z,99649.44
2022-09-09T13:14:50.793Z,99646.09
2022-09-09T13:17:29.407Z,99637.31
2022-09-09T13:19:59.024Z,99637.56
2022-09-09T13:22:34.594Z,99647.50
2022-09-09T13:25:10.430Z,99640.03
2022-09-09T13:27:44.812Z,99641.69
2022-09-09T13:30:26.627Z,99655.50
2022-09-09T13:33:23.540Z,99650.59
2022-09-09T13:35:58.503Z,99633.69
2022-09-09T13:38:27.818Z,99634.88
2022-09-09T13:41:03.102Z,99637.25
2022-09-09T13:43:37.087Z,99643.00
2022-09-09T13:46:08.520Z,99652.66
2022-09-09T13:48:39.416Z,99672.16
2022-09-09T13:51:07.467Z,99676.44
2022-09-09T13:53:35.288Z,99677.72
2022-09-09T13:56:03.853Z,99680.50
2022-09-09T13:58:32.443Z,99680.44
2022-09-09T14:01:00.763Z,99674.25
2022-09-09T14:03:28.959Z,99671.72
2022-09-09T14:05:58.885Z,99684.94
2022-09-09T14:08:29.796Z,99681.63
2022-09-09T14:10:59.394Z,99681.84
2022-09-09T14:13:27.466Z,99676.25
2022-09-09T14:15:55.736Z,99670.44
2022-09-09T14:18:26.334Z,99672.13
2022-09-09T14:20:55.019Z,99663.91
2022-09-09T14:23:25.341Z,99680.19
2022-09-09T14:25:54.091Z,99679.09
2022-09-09T14:28:39.451Z,99680.00
2022-09-09T14:31:14.588Z,99669.59
2022-09-09T14:33:49.880Z,99665.81
2022-09-09T14:36:18.015Z,99664.16
2022-09-09T14:38:47.688Z,99655.06
2022-09-09T14:41:18.881Z,99660.66
2022-09-09T14:43:47.355Z,99655.44
2022-09-09T14:46:16.771Z,99655.38
2022-09-09T14:48:45.124Z,99645.09
2022-09-09T14:51:16.787Z,99645.50
2022-09-09T14:53:45.880Z,99643.97
2022-09-09T14:56:17.594Z,99636.84
2022-09-09T14:58:48.945Z,99628.09
2022-09-09T15:01:19.564Z,99626.25
2022-09-09T15:03:52.889Z,99625.47
2022-09-09T15:06:22.772Z,99624.47
2022-09-09T15:08:53.589Z,99629.34
2022-09-09T15:11:25.654Z,99624.66
2022-09-09T15:13:55.451Z,99628.88
2022-09-09T15:16:26.236Z,99626.34
2022-09-09T15:18:56.222Z,99623.97
2022-09-09T15:21:25.826Z,99628.88
2022-09-09T15:23:54.270Z,99623.75
2022-09-09T15:26:24.174Z,99636.38
2022-09-09T15:28:52.456Z,99637.28
2022-09-09T15:31:21.850Z,99636.50
2022-09-09T15:33:50.656Z,99638.50
2022-09-09T15:36:20.842Z,99629.69
2022-09-09T15:38:51.656Z,99634.00
2022-09-09T15:41:22.073Z,99639.16
2022-09-09T15:43:52.846Z,99645.03
2022-09-09T15:46:28.877Z,99646.97
2022-09-09T15:48:58.084Z,99649.34
2022-09-09T15:51:44.275Z,99654.53
2022-09-09T15:54:15.035Z,99652.75
2022-09-09T15:56:44.028Z,99649.41
2022-09-09T15:59:13.635Z,99666.88
2022-09-09T16:01:43.227Z,99662.25
2022-09-09T16:04:12.493Z,99658.94
2022-09-09T16:06:40.889Z,99649.09
2022-09-09T16:09:11.126Z,99639.63
2022-09-09T16:11:41.664Z,99652.41
2022-09-09T16:14:09.974Z,99658.03
2022-09-09T16:16:39.963Z,99655.59
2022-09-09T16:19:11.021Z,99650.56
2022-09-09T16:21:42.027Z,99653.31
2022-09-09T16:24:12.508Z,99648.09
2022-09-09T16:26:44.050Z,99640.25
2022-09-09T16:29:12.176Z,99635.63
2022-09-09T16:31:41.653Z,99643.41
2022-09-09T16:34:10.505Z,99638.72
2022-09-09T16:36:41.668Z,99637.34
2022-09-09T16:39:12.066Z,99646.28
2022-09-09T16:41:41.579Z,99649.97
2022-09-09T16:44:13.507Z,99662.19
2022-09-09T16:46:44.565Z,99650.41
2022-09-09T16:49:14.389Z,99650.38
2022-09-09T16:51:44.731Z,99644.16
2022-09-09T16:54:14.965Z,99649.63
2022-09-09T16:56:44.818Z,99652.97
2022-09-09T16:59:15.973Z,99650.19
2022-09-09T17:01:46.823Z,99658.28
2022-09-09T17:04:23.646Z,99660.78
2022-09-09T17:06:53.145Z,99669.97
2022-09-09T17:09:23.383Z,99665.72
2022-09-09T17:11:53.518Z,99666.69
2022-09-09T17:14:24.700Z,99666.59
2022-09-09T17:16:54.989Z,99669.72
2022-09-09T17:19:23.094Z,99669.75
2022-09-09T17:22:16.934Z,99680.31
2022-09-09T17:24:41.554Z,99671.59
2022-09-09T17:27:09.938Z,99681.00
2022-09-09T17:29:37.787Z,99676.06
2022-09-09T17:32:08.483Z,99686.56
2022-09-09T17:34:37.121Z,99677.03
2022-09-09T17:37:07.011Z,99662.50
2022-09-09T17:39:35.005Z,99670.50
2022-09-09T17:42:03.546Z,99678.41
2022-09-09T17:44:33.318Z,99681.63
2022-09-09T17:47:01.632Z,99680.88
2022-09-09T17:49:35.155Z,99680.50
2022-09-09T17:52:03.898Z,99682.97
2022-09-09T17:54:34.170Z,99690.28
2022-09-09T17:57:02.168Z,99691.06
2022-09-09T17:59:30.157Z,99696.59
2022-09-09T18:02:01.186Z,99696.88
2022-09-09T18:07:56.453Z,99702.22
2022-09-09T18:10:26.287Z,99700.06
2022-09-09T18:12:55.389Z,99705.72
2022-09-09T18:15:48.238Z,99702.97
2022-09-09T18:18:14.239Z,99700.19
2022-09-09T18:20:44.743Z,99710.16
2022-09-09T18:23:14.084Z,99700.47
2022-09-09T18:25:42.975Z,99716.44
2022-09-09T18:28:11.938Z,99716.25
2022-09-09T18:30:41.653Z,99717.28
2022-09-09T18:33:10.232Z,99725.97
2022-09-09T18:35:39.224Z,99738.13
2022-09-09T18:38:08.335Z,99751.25
2022-09-09T18:40:37.889Z,99750.41
2022-09-09T18:43:05.990Z,99764.72
2022-09-09T18:45:38.208Z,99761.00
2022-09-09T18:48:06.736Z,99764.44
2022-09-09T18:50:36.137Z,99748.78
2022-09-09T18:53:04.276Z,99752.69
2022-09-09T18:55:32.849Z,99758.34
2022-09-09T18:58:03.512Z,99761.25
2022-09-09T19:00:32.908Z,99770.75
2022-09-09T19:03:01.203Z,99772.25
2022-09-09T19:05:31.741Z,99774.19
2022-09-09T19:08:00.687Z,99772.28
2022-09-09T19:10:30.900Z,99775.75
2022-09-09T19:12:59.685Z,99785.50
2022-09-09T19:15:33.359Z,99787.84
2022-09-09T19:18:05.753Z,99805.06
2022-09-09T19:20:34.264Z,99798.16
2022-09-09T19:23:02.685Z,99808.34
2022-09-09T19:25:32.289Z,99812.44
2022-09-09T19:28:07.458Z,99820.50
2022-09-09T19:30:37.501Z,99822.13
2022-09-09T19:33:05.754Z,99819.94
2022-09-09T19:35:34.168Z,99815.81
2022-09-09T19:38:04.242Z,99814.59
2022-09-09T19:40:34.979Z,99804.84
2022-09-09T19:43:05.558Z,99818.06
2022-09-09T19:45:34.287Z,99813.09
2022-09-09T19:48:06.737Z,99807.59
2022-09-09T19:50:37.329Z,99798.78
2022-09-09T21:10:11.071Z,99774.25
2022-09-09T21:12:39.385Z,99782.44
2022-09-09T21:15:07.894Z,99776.09
2022-09-09T21:17:35.777Z,99772.38
2022-09-09T21:20:04.488Z,99782.69
2022-09-09T21:22:32.487Z,99779.81
2022-09-09T21:25:00.644Z,99778.16
2022-09-09T21:27:30.102Z,99776.19
2022-09-09T21:29:58.060Z,99772.44
2022-09-09T21:32:25.857Z,99773.56
2022-09-09T21:34:53.596Z,99777.84
2022-09-09T21:37:21.589Z,99769.72
2022-09-09T21:39:50.458Z,99769.00
2022-09-09T21:42:18.337Z,99769.41
2022-09-09T21:44:47.913Z,99783.16
2022-09-09T21:47:16.176Z,99778.47
2022-09-09T21:49:44.161Z,99785.22
2022-09-09T21:52:12.411Z,99792.09
2022-09-09T21:54:43.784Z,99785.38
2022-09-09T21:57:14.287Z,99790.16
2022-09-09T21:59:42.687Z,99785.88
2022-09-09T22:02:14.233Z,99792.47
2022-09-09T22:04:43.315Z,99793.31
2022-09-09T22:07:12.030Z,99790.97
2022-09-09T22:09:39.989Z,99794.72
2022-09-09T22:12:10.108Z,99793.78
2022-09-09T22:14:38.706Z,99791.69
2022-09-09T22:17:07.420Z,99797.19
2022-09-09T22:19:36.665Z,99789.53
2022-09-09T22:22:04.847Z,99793.06
2022-09-09T22:24:33.099Z,99790.59
2022-09-09T22:27:01.401Z,99788.63
2022-09-09T22:29:29.510Z,99787.78
2022-09-09T22:31:57.787Z,99787.22
2022-09-09T22:34:28.753Z,99787.41
2022-09-09T22:36:58.436Z,99794.28
2022-09-09T22:39:26.321Z,99783.53
2022-09-09T22:41:53.984Z,99780.09
2022-09-09T22:44:23.086Z,99782.88
2022-09-09T22:46:51.546Z,99776.00
2022-09-09T22:49:20.226Z,99788.25
2022-09-09T22:51:48.037Z,99789.66
2022-09-09T22:54:21.630Z,99787.38
2022-09-09T22:56:49.634Z,99788.84
2022-09-09T22:59:18.217Z,99788.16
2022-09-09T23:01:46.806Z,99784.44
2022-09-09T23:04:15.116Z,99784.63
2022-09-09T23:06:44.976Z,99787.34
2022-09-09T23:09:13.257Z,99788.88
2022-09-09T23:11:42.565Z,99790.84
2022-09-09T23:14:12.795Z,99789.91
2022-09-09T23:16:43.961Z,99790.88
2022-09-09T23:19:16.040Z,99804.28
2022-09-09T23:21:46.092Z,99799.16
2022-09-09T23:24:16.785Z,99797.81
2022-09-09T23:26:47.530Z,99795.34
2022-09-09T23:29:16.047Z,99800.09
2022-09-09T23:31:46.261Z,99810.00
2022-09-09T23:34:14.968Z,99799.66
2022-09-09T23:36:43.296Z,99795.09
2022-09-09T23:39:13.264Z,99802.13
2022-09-09T23:41:41.464Z,99796.75
2022-09-09T23:44:13.151Z,99794.16
2022-09-09T23:46:41.296Z,99790.47
2022-09-09T23:49:10.018Z,99786.63
2022-09-09T23:51:41.608Z,99798.75
2022-09-09T23:54:10.776Z,99794.66
2022-09-09T23:56:41.302Z,99799.59
2022-09-09T23:59:13.857Z,99798.91
